Time;durP1;ratioP1;P1;durP2;ratioP2;P2;SDS_P1;SDS_P2;PMS_P1;PMS_P2;Temp;Humidity;BMP_temperature;BMP_pressure;BME280_temperature;BME280_humidity;BME280_pressure;Samples;Min_cycle;Max_cycle;Signal;HPM_P1;HPM_P2
2022/12/17 13:06:41;;;;;;;56.08;30.33;;;;;;;-0.88;100.00;102553.34;5053779;28;20089;-65
2022/12/17 13:09:16;;;;;;;52.13;25.98;;;;;;;-0.88;100.00;102555.13;5039064;28;20021;-65
2022/12/17 13:11:45;;;;;;;51.85;28.75;;;;;;;-0.89;100.00;102558.69;5068052;28;20545;-66
2022/12/17 13:14:33;;;;;;;57.20;29.00;;;;;;;-0.96;100.00;102552.06;5068750;28;20032;-66
2022/12/17 13:17:27;;;;;;;51.03;26.13;;;;;;;-1.09;100.00;102551.00;5055435;28;20043;-65
2022/12/17 13:19:55;;;;;;;46.40;25.42;;;;;;;-1.19;100.00;102556.69;5049704;28;20021;-65
2022/12/17 13:22:21;;;;;;;53.42;26.55;;;;;;;-1.24;100.00;102543.00;5049551;28;20037;-65
2022/12/17 13:24:49;;;;;;;51.15;25.25;;;;;;;-1.23;100.00;102554.31;5049613;28;20361;-65
2022/12/17 13:27:33;;;;;;;45.53;24.60;;;;;;;-1.41;100.00;102533.38;5049257;28;20553;-65
2022/12/17 13:30:13;;;;;;;55.17;29.95;;;;;;;-1.34;100.00;102557.47;5048333;28;20037;-66
2022/12/17 13:32:47;;;;;;;52.30;25.63;;;;;;;-1.37;100.00;102561.09;5049722;28;20112;-68
2022/12/17 13:35:24;;;;;;;44.13;23.80;;;;;;;-1.27;100.00;102555.41;5047976;28;20037;-66
2022/12/17 13:38:25;;;;;;;47.13;22.60;;;;;;;-1.20;100.00;102554.16;5048266;28;20507;-65
2022/12/17 13:41:07;;;;;;;49.33;22.85;;;;;;;-1.17;100.00;102551.41;4967609;28;20030;-66
2022/12/17 13:43:38;;;;;;;;;;;;;;;-1.16;100.00;102558.31;5041574;28;20072;-65
2022/12/17 13:46:03;;;;;;;43.63;22.65;;;;;;;-1.22;100.00;102556.84;5048204;28;19967;-66
2022/12/17 13:48:29;;;;;;;48.60;22.05;;;;;;;-1.29;100.00;102563.31;5040040;28;20124;-66
2022/12/17 13:50:58;;;;;;;44.63;22.45;;;;;;;-1.30;100.00;102573.88;5046701;28;20047;-68
2022/12/17 13:53:25;;;;;;;39.28;22.23;;;;;;;-1.39;100.00;102569.94;5039122;28;20052;-66
2022/12/17 13:55:52;;;;;;;48.05;21.58;;;;;;;-1.49;100.00;102558.22;5051382;28;20163;-66
2022/12/17 13:58:22;;;;;;;48.95;24.88;;;;;;;-1.61;100.00;102554.47;5052742;28;20025;-65
2022/12/17 14:00:48;;;;;;;46.63;21.83;;;;;;;-1.64;100.00;102552.84;5052699;28;20416;-66
2022/12/17 14:03:19;;;;;;;44.67;21.67;;;;;;;-1.75;100.00;102541.22;5034857;28;20028;-66
2022/12/17 14:05:44;;;;;;;45.95;24.08;;;;;;;-1.67;100.00;102557.38;5052675;28;20032;-66
2022/12/17 14:08:18;;;;;;;49.28;25.58;;;;;;;-1.83;100.00;102545.06;5046373;28;20033;-67
2022/12/17 14:10:51;;;;;;;53.13;24.25;;;;;;;-1.76;100.00;102561.28;5045799;28;20025;-66
2022/12/17 14:13:17;;;;;;;50.55;25.77;;;;;;;-1.74;100.00;102567.28;5052177;28;20495;-66
2022/12/17 14:15:50;;;;;;;55.92;27.27;;;;;;;-1.73;100.00;102563.75;5052369;28;20079;-66
2022/12/17 14:18:19;;;;;;;43.75;21.23;;;;;;;-1.74;100.00;102564.66;5052162;28;20025;-66
2022/12/17 14:20:46;;;;;;;45.95;21.55;;;;;;;-1.75;100.00;102567.38;5051833;28;20029;-66
2022/12/17 14:23:25;;;;;;;45.30;23.63;;;;;;;-1.69;100.00;102561.84;5046172;28;20736;-66
2022/12/17 14:25:51;;;;;;;49.30;22.27;;;;;;;-1.64;100.00;102565.09;5052113;28;20017;-66
2022/12/17 14:28:29;;;;;;;47.22;25.67;;;;;;;-1.61;100.00;102571.00;5052101;28;20037;-66
2022/12/17 14:31:04;;;;;;;53.55;26.65;;;;;;;-1.68;100.00;102577.44;5041389;28;20030;-66
2022/12/17 14:33:32;;;;;;;49.42;24.02;;;;;;;-1.76;100.00;102569.13;5051901;28;20450;-66
2022/12/17 14:36:01;;;;;;;43.92;22.08;;;;;;;-1.82;100.00;102582.50;5071447;28;20421;-66
2022/12/17 14:38:27;;;;;;;48.83;22.10;;;;;;;-1.91;100.00;102573.34;5071523;28;20112;-66
2022/12/17 14:40:53;;;;;;;38.95;20.30;;;;;;;-2.01;100.00;102577.31;5071427;28;20048;-66
2022/12/17 14:43:27;;;;;;;50.22;23.60;;;;;;;-2.11;100.00;102583.88;5071508;28;20383;-66
2022/12/17 14:49:00;;;;;;;54.22;21.88;;;;;;;-2.16;100.00;102597.16;5071576;28;20039;-66
2022/12/17 14:51:38;;;;;;;48.58;23.20;;;;;;;-2.14;100.00;102590.09;5065044;28;20412;-66
2022/12/17 14:54:12;;;;;;;49.58;21.73;;;;;;;-2.10;100.00;102583.78;5064940;28;20032;-72
2022/12/17 14:56:39;;;;;;;46.13;22.02;;;;;;;-2.12;100.00;102590.88;5058164;28;20117;-72
2022/12/17 14:59:04;;;;;;;47.30;24.13;;;;;;;-2.15;100.00;102590.16;5051916;28;20388;-72
2022/12/17 15:01:30;;;;;;;48.05;25.33;;;;;;;-2.10;100.00;102594.25;5051512;28;20029;-72
2022/12/17 15:03:56;;;;;;;44.97;21.33;;;;;;;-2.08;100.00;102592.41;5063279;28;20105;-72
2022/12/17 15:06:21;;;;;;;42.80;21.30;;;;;;;-2.14;100.00;102587.47;5061353;28;20151;-72
2022/12/17 15:08:49;;;;;;;42.28;22.38;;;;;;;-2.10;100.00;102601.25;5067771;28;20028;-72
2022/12/17 15:11:18;;;;;;;49.78;21.65;;;;;;;-2.09;100.00;102608.19;5061983;28;20039;-72
2022/12/17 15:13:43;;;;;;;43.80;21.75;;;;;;;-2.13;100.00;102596.16;5050389;28;20024;-72
2022/12/17 15:16:09;;;;;;;43.78;21.00;;;;;;;-2.12;100.00;102597.84;5050981;28;20144;-72
2022/12/17 15:18:35;;;;;;;51.72;24.38;;;;;;;-2.16;100.00;102606.78;5051103;28;20033;-66
2022/12/17 15:21:01;;;;;;;50.60;22.75;;;;;;;-2.22;100.00;102611.34;5051105;28;20029;-66
2022/12/17 15:23:27;;;;;;;47.75;21.13;;;;;;;-2.33;100.00;102607.53;5033303;28;20040;-66
2022/12/17 15:25:53;;;;;;;47.33;21.70;;;;;;;-2.36;100.00;102620.72;5051135;28;20025;-66
2022/12/17 15:28:19;;;;;;;49.40;27.77;;;;;;;-2.44;100.00;102619.34;5050965;28;20056;-66
2022/12/17 15:30:45;;;;;;;48.42;23.08;;;;;;;-2.52;100.00;102615.34;5050996;28;20083;-66
2022/12/17 15:33:11;;;;;;;54.80;26.13;;;;;;;-2.52;100.00;102631.00;5051108;28;20039;-66
2022/12/17 15:35:37;;;;;;;48.20;23.23;;;;;;;-2.56;100.00;102634.69;5048739;28;20045;-66
2022/12/17 15:38:04;;;;;;;51.05;26.10;;;;;;;-2.56;100.00;102634.69;5050634;28;20037;-66
2022/12/17 15:40:29;;;;;;;52.42;24.52;;;;;;;-2.55;100.00;102633.75;5050857;28;20057;-66
2022/12/17 15:43:10;;;;;;;51.13;23.40;;;;;;;-2.53;100.00;102643.22;5050761;28;20127;-66
2022/12/17 15:45:39;;;;;;;49.97;22.70;;;;;;;-2.50;100.00;102640.47;5050616;28;20092;-67
2022/12/17 15:48:05;;;;;;;57.17;30.23;;;;;;;-2.56;100.00;102625.09;5050543;28;20032;-67
2022/12/17 15:50:30;;;;;;;48.90;25.73;;;;;;;-2.53;100.00;102640.63;5050384;28;20029;-67
2022/12/17 15:52:55;;;;;;;58.60;23.08;;;;;;;-2.52;100.00;102638.84;5050408;28;20051;-66
2022/12/17 15:55:21;;;;;;;60.47;28.63;;;;;;;-2.52;100.00;102642.31;5050679;28;20033;-75
2022/12/17 15:57:46;;;;;;;54.20;24.33;;;;;;;-2.67;100.00;102615.13;5050676;28;20031;-74
2022/12/17 16:00:12;;;;;;;46.13;23.40;;;;;;;-2.53;100.00;102645.00;5050597;28;20032;-72
2022/12/17 16:02:37;;;;;;;54.92;24.65;;;;;;;-2.60;100.00;102644.41;5050472;28;20029;-74
2022/12/17 16:05:04;;;;;;;49.33;24.60;;;;;;;-2.59;100.00;102650.47;5050527;28;20025;-73
2022/12/17 16:07:29;;;;;;;49.97;21.98;;;;;;;-2.62;100.00;102640.16;5050440;28;20090;-73
2022/12/17 16:09:54;;;;;;;37.72;21.25;;;;;;;-2.57;100.00;102644.25;5050479;28;20025;-72
2022/12/17 16:12:20;;;;;;;44.58;23.10;;;;;;;-2.61;100.00;102645.34;5050058;28;20033;-72
2022/12/17 16:14:45;;;;;;;50.10;21.15;;;;;;;-2.68;100.00;102654.34;5043474;28;20033;-72
2022/12/17 16:17:10;;;;;;;50.40;24.80;;;;;;;-2.69;100.00;102650.03;5044545;28;20064;-73
2022/12/17 16:19:36;;;;;;;40.55;20.52;;;;;;;-2.72;100.00;102650.19;5044321;28;20108;-74
2022/12/17 16:22:01;;;;;;;46.08;23.75;;;;;;;-2.75;100.00;102645.94;5044415;28;20066;-72
2022/12/17 16:24:27;;;;;;;43.28;21.70;;;;;;;-2.67;100.00;102650.84;5043662;28;20111;-74
2022/12/17 16:26:52;;;;;;;46.20;22.02;;;;;;;-2.71;100.00;102659.69;5044371;28;20040;-72
2022/12/17 16:29:18;;;;;;;52.97;23.08;;;;;;;-2.72;100.00;102661.47;5044313;28;20457;-73
2022/12/17 16:31:44;;;;;;;52.75;22.80;;;;;;;-2.72;100.00;102660.63;5044293;28;20044;-73
2022/12/17 16:34:11;;;;;;;46.42;22.38;;;;;;;-2.75;100.00;102655.50;5046359;28;20054;-73
2022/12/17 16:36:36;;;;;;;51.38;27.63;;;;;;;-2.77;100.00;102663.44;5055545;28;20082;-73
2022/12/17 16:39:03;;;;;;;55.78;26.58;;;;;;;-2.80;100.00;102662.69;5053107;28;20075;-74
2022/12/17 16:41:28;;;;;;;45.70;25.45;;;;;;;-2.82;100.00;102652.34;5054621;28;20129;-73
2022/12/17 16:43:53;;;;;;;48.03;25.38;;;;;;;-2.76;100.00;102661.66;5054666;28;20482;-73
2022/12/17 16:46:30;;;;;;;46.63;23.23;;;;;;;-2.74;100.00;102655.47;5054517;28;20082;-72
2022/12/17 16:48:58;;;;;;;54.95;25.35;;;;;;;-2.75;100.00;102653.78;5053461;28;20429;-71
2022/12/17 16:51:26;;;;;;;46.00;24.20;;;;;;;-2.76;100.00;102646.84;5055218;28;20082;-73
2022/12/17 16:53:51;;;;;;;55.45;24.85;;;;;;;-2.72;100.00;102651.03;5053579;28;20048;-72
2022/12/17 16:56:20;;;;;;;53.20;24.95;;;;;;;-2.71;100.00;102655.31;5053829;28;20024;-66
2022/12/17 16:58:45;;;;;;;46.95;21.92;;;;;;;-2.69;100.00;102657.88;5063555;28;20374;-66
2022/12/17 17:01:12;;;;;;;49.42;22.35;;;;;;;-2.72;100.00;102655.41;5069192;28;20123;-66
2022/12/17 17:03:40;;;;;;;49.78;22.20;;;;;;;-2.78;100.00;102659.09;5069045;28;20483;-66
2022/12/17 17:06:07;;;;;;;56.45;26.38;;;;;;;-2.83;100.00;102663.66;5069088;28;21019;-66
2022/12/17 17:08:35;;;;;;;49.72;23.67;;;;;;;-2.89;100.00;102656.09;5068919;28;20029;-66
2022/12/17 17:11:13;;;;;;;50.08;23.25;;;;;;;-2.91;100.00;102657.94;5069082;28;20101;-67
2022/12/17 17:13:39;;;;;;;47.22;21.35;;;;;;;-2.94;100.00;102658.06;5068980;28;20032;-66
2022/12/17 17:16:06;;;;;;;48.95;24.45;;;;;;;-2.91;100.00;102663.16;5068875;28;20025;-66
2022/12/17 17:18:32;;;;;;;51.83;24.73;;;;;;;-2.95;100.00;102659.81;5070731;28;20138;-66
2022/12/17 17:21:19;;;;;;;51.92;25.73;;;;;;;-2.97;100.00;102659.03;5073110;28;20027;-66
2022/12/17 17:23:49;;;;;;;49.55;23.70;;;;;;;-2.97;100.00;102658.19;5073032;28;20094;-66
2022/12/17 17:26:15;;;;;;;54.17;25.73;;;;;;;-2.97;100.00;102668.63;5073088;28;20364;-66
2022/12/17 17:28:41;;;;;;;50.17;23.65;;;;;;;-3.00;100.00;102672.22;5072895;28;20093;-66
2022/12/17 17:31:10;;;;;;;50.47;23.98;;;;;;;-3.09;100.00;102662.19;5072946;28;20123;-66
2022/12/17 17:33:38;;;;;;;45.88;23.85;;;;;;;-3.12;100.00;102665.75;5072811;28;20021;-66
2022/12/17 17:36:25;;;;;;;52.95;25.05;;;;;;;-3.15;100.00;102667.63;5072839;28;20044;-66
2022/12/17 17:38:51;;;;;;;49.03;21.50;;;;;;;-3.16;100.00;102671.16;5072058;28;20078;-66
2022/12/17 17:41:19;;;;;;;47.47;21.92;;;;;;;-3.15;100.00;102667.63;5072695;28;20475;-67
2022/12/17 17:43:45;;;;;;;50.67;21.95;;;;;;;-3.10;100.00;102676.97;5072601;28;20043;-67
2022/12/17 17:46:16;;;;;;;51.38;23.42;;;;;;;-3.05;100.00;102682.00;5072608;28;20489;-66
2022/12/17 17:48:46;;;;;;;55.97;25.13;;;;;;;-3.06;100.00;102685.53;5072636;28;20429;-66
2022/12/17 17:51:20;;;;;;;58.10;24.83;;;;;;;-3.06;100.00;102677.69;5072464;28;20059;-66
2022/12/17 17:53:48;;;;;;;49.75;24.20;;;;;;;-3.05;100.00;102691.59;5072560;28;20029;-66
2022/12/17 17:56:34;;;;;;;53.20;26.15;;;;;;;-3.06;100.00;102688.16;5057837;28;20107;-66
2022/12/17 17:59:12;;;;;;;54.65;25.73;;;;;;;-3.08;100.00;102682.97;5052760;28;20487;-66
2022/12/17 18:01:41;;;;;;;49.08;24.27;;;;;;;-3.11;100.00;102684.88;5053164;28;20108;-66
2022/12/17 18:04:10;;;;;;;50.70;24.45;;;;;;;-3.19;100.00;102686.94;5053198;28;20438;-66
2022/12/17 18:06:38;;;;;;;45.60;21.75;;;;;;;-3.23;100.00;102685.34;5053195;28;20057;-66
2022/12/17 18:09:04;;;;;;;54.10;25.98;;;;;;;-3.30;100.00;102684.78;5053064;28;20037;-66
2022/12/17 18:11:30;;;;;;;60.08;23.77;;;;;;;-3.33;100.00;102684.88;5053130;28;20090;-67
2022/12/17 18:13:57;;;;;;;46.83;23.75;;;;;;;-3.35;100.00;102697.16;5052851;28;20029;-66
2022/12/17 18:16:31;;;;;;;48.00;24.40;;;;;;;-3.36;100.00;102690.22;5052947;28;20438;-66
2022/12/17 18:18:59;;;;;;;50.28;23.80;;;;;;;-3.36;100.00;102690.22;5052868;28;20025;-66
2022/12/17 18:21:26;;;;;;;50.25;22.73;;;;;;;-3.37;100.00;102685.91;5052609;28;20388;-66
2022/12/17 18:24:01;;;;;;;48.72;23.77;;;;;;;-3.31;100.00;102702.16;5051533;28;20029;-66
2022/12/17 18:26:30;;;;;;;51.25;27.85;;;;;;;-3.38;100.00;102702.47;5052762;28;20063;-66
2022/12/17 18:29:05;;;;;;;50.53;22.13;;;;;;;-3.43;100.00;102696.56;5067342;28;20513;-66
2022/12/17 18:31:31;;;;;;;50.63;23.67;;;;;;;-3.41;100.00;102707.81;5070250;28;20040;-66
2022/12/17 18:33:58;;;;;;;51.45;23.88;;;;;;;-3.40;100.00;102706.91;5070450;28;20399;-66
2022/12/17 18:36:27;;;;;;;49.75;23.85;;;;;;;-3.41;100.00;102708.66;5070367;28;20089;-66
2022/12/17 18:39:22;;;;;;;41.83;21.95;;;;;;;-3.55;100.00;102684.88;5070403;28;20016;-66
2022/12/17 18:44:36;;;;;;;43.03;20.05;;;;;;;-3.65;100.00;102699.19;5069215;28;20042;-66
2022/12/17 18:47:02;;;;;;;43.10;21.33;;;;;;;-3.69;100.00;102692.38;5070518;28;20082;-66
2022/12/17 18:49:27;;;;;;;42.95;21.00;;;;;;;-3.73;100.00;102691.66;5070319;28;20028;-66
2022/12/17 18:51:53;;;;;;;43.67;19.38;;;;;;;-3.80;100.00;102698.00;5070516;28;20055;-66
2022/12/17 18:54:20;;;;;;;43.92;19.38;;;;;;;-3.85;100.00;102707.75;5052783;28;20043;-65
2022/12/17 18:56:46;;;;;;;43.75;20.60;;;;;;;-3.88;100.00;102708.69;5070632;28;20552;-66
2022/12/17 18:59:13;;;;;;;42.63;23.05;;;;;;;-3.95;100.00;102696.00;5070443;28;20031;-67
2022/12/17 19:01:39;;;;;;;48.28;23.05;;;;;;;-3.97;100.00;102694.25;5070567;28;20034;-66
2022/12/17 19:04:08;;;;;;;44.28;20.67;;;;;;;-3.90;100.00;102696.63;5071114;28;20033;-66
2022/12/17 19:06:35;;;;;;;40.38;18.75;;;;;;;-3.90;100.00;102704.44;5071004;28;20036;-66
2022/12/17 19:09:00;;;;;;;48.28;20.73;;;;;;;-4.05;100.00;102698.91;5070978;28;20055;-66
2022/12/17 19:11:27;;;;;;;49.97;23.08;;;;;;;-4.08;100.00;102696.44;5071058;28;20463;-66
2022/12/17 19:13:52;;;;;;;49.80;22.08;;;;;;;-4.04;100.00;102712.78;5070269;28;20032;-66
2022/12/17 19:16:20;;;;;;;52.60;24.52;;;;;;;-4.09;100.00;102710.34;5069957;28;20032;-67
2022/12/17 19:19:01;;;;;;;44.30;21.25;;;;;;;-4.10;100.00;102713.88;5070449;28;20111;-67
2022/12/17 19:21:27;;;;;;;50.58;22.02;;;;;;;-4.18;100.00;102724.56;5071151;28;20825;-66
2022/12/17 19:23:58;;;;;;;56.67;27.08;;;;;;;-4.23;100.00;102733.44;5070713;28;20035;-66
2022/12/17 19:26:24;;;;;;;46.15;22.73;;;;;;;-4.24;100.00;102730.00;5070130;28;20448;-65
2022/12/17 19:28:51;;;;;;;50.20;25.42;;;;;;;-4.21;100.00;102729.88;5070603;28;20060;-66
2022/12/17 19:31:18;;;;;;;46.47;22.00;;;;;;;-4.19;100.00;102737.66;5070576;28;20079;-67
2022/12/17 19:33:45;;;;;;;53.25;24.70;;;;;;;-4.21;100.00;102731.66;5069959;28;20115;-66
2022/12/17 19:36:18;;;;;;;47.08;23.13;;;;;;;-4.23;100.00;102734.28;5069786;28;20123;-66
2022/12/17 19:38:45;;;;;;;47.42;22.27;;;;;;;-4.22;100.00;102735.13;5069614;28;20059;-66
2022/12/17 19:41:16;;;;;;;51.10;25.60;;;;;;;-4.28;100.00;102727.56;5069445;28;20093;-66
2022/12/17 19:43:43;;;;;;;47.50;24.75;;;;;;;-4.24;100.00;102734.38;5069579;28;20024;-66
2022/12/17 19:46:14;;;;;;;47.30;23.52;;;;;;;-4.28;100.00;102727.56;5069475;28;20089;-66
2022/12/17 19:48:40;;;;;;;52.40;23.30;;;;;;;-4.29;100.00;102733.69;5065231;28;20032;-74
2022/12/17 19:51:08;;;;;;;58.42;25.48;;;;;;;-4.38;100.00;102736.59;5059129;28;20028;-73
2022/12/17 19:53:37;;;;;;;58.85;27.17;;;;;;;-4.45;100.00;102726.38;5055036;28;20063;-74
2022/12/17 19:56:29;;;;;;;55.95;22.90;;;;;;;-4.47;100.00;102730.78;5053268;28;20475;-74
2022/12/17 19:58:57;;;;;;;55.58;27.55;;;;;;;-4.49;100.00;102721.34;5055235;28;20989;-72
2022/12/17 20:01:31;;;;;;;56.20;24.50;;;;;;;-4.42;100.00;102738.47;5054127;28;20183;-72
2022/12/17 20:03:57;;;;;;;53.85;25.40;;;;;;;-4.41;100.00;102742.75;5054856;28;20036;-73
2022/12/17 20:06:26;;;;;;;52.25;26.83;;;;;;;-4.50;100.00;102741.31;5054485;28;20025;-73
2022/12/17 20:08:52;;;;;;;42.33;21.75;;;;;;;-4.49;100.00;102748.22;5054122;28;20021;-74
2022/12/17 20:11:33;;;;;;;47.95;25.15;;;;;;;-4.47;100.00;102743.81;5055217;28;20047;-74
2022/12/17 20:14:11;;;;;;;46.08;21.70;;;;;;;-4.43;100.00;102748.03;5055350;28;20391;-74
2022/12/17 20:16:44;;;;;;;57.22;28.67;;;;;;;-4.53;100.00;102732.75;5054177;28;20024;-72
2022/12/17 20:19:32;;;;;;;44.45;23.70;;;;;;;-4.43;100.00;102745.44;5055116;28;20033;-74
2022/12/17 20:22:06;;;;;;;52.40;25.45;;;;;;;-4.36;100.00;102760.81;5053074;28;20039;-72
2022/12/17 20:24:31;;;;;;;47.72;25.15;;;;;;;-4.43;100.00;102758.44;5053703;28;20395;-72
2022/12/17 20:26:57;;;;;;;55.72;24.92;;;;;;;-4.45;100.00;102764.59;5053427;28;20036;-74
2022/12/17 20:29:24;;;;;;;49.10;26.67;;;;;;;-4.50;100.00;102764.75;5052717;28;20387;-73
2022/12/17 20:31:50;;;;;;;51.40;22.42;;;;;;;-4.50;100.00;102772.56;5053260;28;20318;-73
2022/12/17 20:34:17;;;;;;;54.92;26.13;;;;;;;-4.52;100.00;102766.56;5051839;28;20040;-73
2022/12/17 20:36:43;;;;;;;52.83;24.02;;;;;;;-4.59;100.00;102761.59;5052341;28;21575;-72
2022/12/17 20:39:09;;;;;;;51.60;26.33;;;;;;;-4.49;100.00;102768.19;5035740;28;20036;-72
2022/12/17 20:41:35;;;;;;;58.05;29.65;;;;;;;-4.49;100.00;102758.63;5051983;28;20025;-72
2022/12/17 20:44:10;;;;;;;50.03;27.25;;;;;;;-4.45;100.00;102759.41;5052544;28;20029;-72
2022/12/17 20:46:35;;;;;;;61.15;31.45;;;;;;;-4.42;100.00;102756.69;5051429;28;20094;-72
2022/12/17 20:49:02;;;;;;;59.70;31.65;;;;;;;-4.42;100.00;102749.72;5052245;28;20104;-72
2022/12/17 20:51:28;;;;;;;57.55;26.88;;;;;;;-4.41;100.00;102746.19;5051173;28;20051;-72
2022/12/17 20:53:56;;;;;;;56.65;32.67;;;;;;;-4.38;100.00;102744.41;5050082;28;20102;-72
2022/12/17 20:56:24;;;;;;;62.38;29.27;;;;;;;-4.44;100.00;102729.84;5033216;28;20814;-72
2022/12/17 20:59:01;;;;;;;62.83;31.95;;;;;;;-4.44;100.00;102730.69;5052622;28;20028;-72
2022/12/17 21:01:28;;;;;;;57.78;26.35;;;;;;;-4.46;100.00;102732.47;5050423;28;20025;-72
2022/12/17 21:03:55;;;;;;;57.53;28.83;;;;;;;-4.44;100.00;102735.03;5050514;28;21054;-73
2022/12/17 21:06:26;;;;;;;49.08;24.60;;;;;;;-4.45;100.00;102733.34;5049373;28;20097;-72
2022/12/17 21:08:53;;;;;;;53.03;25.33;;;;;;;-4.48;100.00;102731.72;5050795;28;20032;-74
2022/12/17 21:11:21;;;;;;;51.08;24.85;;;;;;;-4.48;100.00;102738.66;5051080;28;21775;-72
2022/12/17 21:13:46;;;;;;;53.13;26.90;;;;;;;-4.54;100.00;102729.28;5047930;28;20060;-72
2022/12/17 21:16:15;;;;;;;55.22;25.17;;;;;;;-4.49;100.00;102742.16;5032393;28;20060;-72
2022/12/17 21:18:40;;;;;;;49.80;22.20;;;;;;;-4.52;100.00;102737.06;5050339;28;20058;-72
2022/12/17 21:21:12;;;;;;;53.92;24.95;;;;;;;-4.58;100.00;102726.88;5033065;28;20060;-72
2022/12/17 21:23:39;;;;;;;56.22;25.73;;;;;;;-4.55;100.00;102732.81;5049328;28;20144;-72
2022/12/17 21:26:18;;;;;;;56.30;27.00;;;;;;;-4.55;100.00;102738.03;5051442;28;20040;-72
2022/12/17 21:28:46;;;;;;;53.50;26.85;;;;;;;-4.56;100.00;102740.66;5052342;28;20028;-72
2022/12/17 21:31:26;;;;;;;57.03;25.55;;;;;;;-4.58;100.00;102745.09;5049455;28;20032;-72
2022/12/17 21:33:55;;;;;;;54.83;27.10;;;;;;;-4.60;100.00;102755.56;5049193;28;20045;-72
2022/12/17 21:36:21;;;;;;;50.53;26.52;;;;;;;-4.63;100.00;102756.50;5049057;28;20043;-72
2022/12/17 21:38:48;;;;;;;62.13;30.23;;;;;;;-4.69;100.00;102755.84;5050176;28;20418;-72
2022/12/17 21:41:16;;;;;;;55.33;29.38;;;;;;;-4.59;100.00;102780.66;5050398;28;20286;-72
2022/12/17 21:43:42;;;;;;;51.30;25.88;;;;;;;-4.60;100.00;102775.53;5050393;28;20107;-72
2022/12/17 21:46:09;;;;;;;68.95;31.40;;;;;;;-4.58;100.00;102774.59;5050327;28;20119;-73
2022/12/17 21:48:37;;;;;;;56.08;26.52;;;;;;;-4.58;100.00;102778.94;5049673;28;20059;-72
2022/12/17 21:51:04;;;;;;;54.88;26.77;;;;;;;-4.64;100.00;102766.94;5049906;28;20040;-72
2022/12/17 21:53:29;;;;;;;53.13;27.02;;;;;;;-4.67;100.00;102780.06;5051528;28;20099;-72
2022/12/17 21:56:06;;;;;;;45.47;22.23;;;;;;;-4.72;100.00;102775.00;5051199;28;20025;-72
2022/12/17 21:58:32;;;;;;;51.15;24.33;;;;;;;-4.75;100.00;102779.47;5052167;28;20028;-66
2022/12/17 22:00:57;;;;;;;42.47;23.42;;;;;;;-4.75;100.00;102782.09;5053805;28;20606;-66
2022/12/17 22:03:23;;;;;;;44.80;22.80;;;;;;;-4.86;100.00;102764.22;5035797;28;20053;-66
2022/12/17 22:05:49;;;;;;;51.85;24.27;;;;;;;-4.73;100.00;102783.72;5065066;28;20119;-65
2022/12/17 22:08:14;;;;;;;49.50;24.52;;;;;;;-4.73;100.00;102781.13;5071410;28;20029;-64
2022/12/17 22:10:42;;;;;;;49.88;23.17;;;;;;;-4.72;100.00;102789.78;5072018;28;20483;-64
2022/12/17 22:15:53;;;;;;;54.53;24.30;;;;;;;-4.87;100.00;102789.38;5072511;28;20115;-65
2022/12/17 22:18:19;;;;;;;52.30;25.10;;;;;;;-4.86;100.00;102793.69;5072066;28;20653;-64
2022/12/17 22:20:44;;;;;;;48.63;24.50;;;;;;;-4.89;100.00;102790.34;5072016;28;20039;-64
2022/12/17 22:23:10;;;;;;;43.55;20.73;;;;;;;-4.92;100.00;102774.84;5071962;28;20124;-65
2022/12/17 22:25:37;;;;;;;51.10;22.92;;;;;;;-4.95;100.00;102777.50;5071905;28;20052;-65
2022/12/17 22:28:03;;;;;;;46.30;21.88;;;;;;;-4.95;100.00;102788.78;5071984;28;20458;-64
2022/12/17 22:33:12;;;;;;;40.22;20.67;;;;;;;-5.04;100.00;102785.63;5070952;28;20103;-65
2022/12/17 22:35:41;;;;;;;43.53;21.20;;;;;;;-5.09;100.00;102783.16;5071609;28;20060;-64
2022/12/17 22:38:08;;;;;;;42.25;19.27;;;;;;;-5.21;100.00;102775.72;5071731;28;20034;-64
2022/12/17 22:40:35;;;;;;;42.40;18.67;;;;;;;-5.20;100.00;102783.47;5069770;28;20055;-64
2022/12/17 22:45:45;;;;;;;37.95;18.33;;;;;;;-5.28;100.00;102785.47;5052011;28;20647;-64
2022/12/17 22:48:11;;;;;;;41.75;20.00;;;;;;;-5.40;100.00;102771.06;5033573;28;20041;-65
2022/12/17 22:50:37;;;;;;;43.17;21.52;;;;;;;-5.36;100.00;102782.25;5051395;28;20506;-65
2022/12/17 22:53:03;;;;;;;40.33;21.10;;;;;;;-5.47;100.00;102771.31;5051139;28;20036;-64
2022/12/17 22:55:29;;;;;;;46.90;22.13;;;;;;;-5.45;100.00;102780.75;5067764;28;20044;-64
2022/12/17 22:57:55;;;;;;;39.17;21.52;;;;;;;-5.48;100.00;102783.44;5070522;28;20043;-64
2022/12/17 23:00:23;;;;;;;49.10;22.08;;;;;;;-5.56;100.00;102778.47;5070616;28;20111;-65
2022/12/17 23:02:53;;;;;;;44.50;22.00;;;;;;;-5.61;100.00;102774.31;5070199;28;20034;-64
2022/12/17 23:05:20;;;;;;;41.70;20.42;;;;;;;-5.62;100.00;102788.22;5052161;28;20033;-65
2022/12/17 23:07:46;;;;;;;44.47;24.05;;;;;;;-5.67;100.00;102788.34;5052097;28;20075;-65
2022/12/17 23:10:11;;;;;;;38.92;18.98;;;;;;;-5.66;100.00;102783.97;5052010;28;20420;-65
2022/12/17 23:12:54;;;;;;;45.90;24.38;;;;;;;-5.72;100.00;102788.47;5051904;28;20033;-64
2022/12/17 23:15:25;;;;;;;38.28;19.65;;;;;;;-5.77;100.00;102787.72;5051404;28;20025;-65
2022/12/17 23:17:52;;;;;;;37.95;18.63;;;;;;;-5.81;100.00;102780.94;5051908;28;20032;-64
2022/12/17 23:20:18;;;;;;;44.00;17.10;;;;;;;-5.83;100.00;102771.47;5051851;28;20526;-65
2022/12/17 23:22:44;;;;;;;37.40;19.55;;;;;;;-5.87;100.00;102773.28;5051785;28;20072;-64
2022/12/17 23:25:09;;;;;;;39.08;20.67;;;;;;;-5.90;100.00;102773.38;5051645;28;20036;-64
2022/12/17 23:27:35;;;;;;;44.47;20.70;;;;;;;-5.94;100.00;102769.22;5051705;28;20036;-64
2022/12/17 23:30:00;;;;;;;38.38;19.50;;;;;;;-6.00;100.00;102775.44;5051446;28;20071;-65
2022/12/17 23:32:26;;;;;;;36.90;19.05;;;;;;;-6.01;100.00;102778.91;5051356;28;20065;-64
2022/12/17 23:34:51;;;;;;;42.88;21.60;;;;;;;-6.03;100.00;102779.84;5050972;28;20190;-64
2022/12/17 23:37:16;;;;;;;43.35;21.65;;;;;;;-6.08;100.00;102786.91;5051009;28;20040;-64
2022/12/17 23:39:42;;;;;;;49.25;22.02;;;;;;;-6.11;100.00;102785.25;5050643;28;20039;-64
2022/12/17 23:42:07;;;;;;;44.28;22.13;;;;;;;-6.11;100.00;102776.59;5050072;28;20121;-64
2022/12/17 23:44:32;;;;;;;47.10;22.13;;;;;;;-6.12;100.00;102777.50;5048373;28;20087;-64
2022/12/17 23:46:58;;;;;;;52.15;22.52;;;;;;;-6.15;100.00;102775.00;5049773;28;20120;-65
2022/12/17 23:49:23;;;;;;;45.10;23.55;;;;;;;-6.19;100.00;102777.66;5049529;28;20114;-64
2022/12/17 23:51:49;;;;;;;40.63;20.42;;;;;;;-6.21;100.00;102774.28;5049619;28;20167;-64
2022/12/17 23:54:14;;;;;;;37.65;18.70;;;;;;;-6.24;100.00;102779.53;5049777;28;20514;-64
2022/12/17 23:56:39;;;;;;;46.63;21.83;;;;;;;-6.26;100.00;102776.13;5049495;28;20048;-64
2022/12/17 23:59:05;;;;;;;40.35;19.27;;;;;;;-6.34;100.00;102754.72;5050079;28;20032;-64
